sensor_id;sensor_type;location;lat;lon;timestamp;pressure;altitude;pressure_sealevel;temperature;humidity
59274;BME280;45044;41.572;24.730;2023-06-10T00:00:29;91065.81;;;11.42;100.00
59274;BME280;45044;41.572;24.730;2023-06-10T00:02:57;91075.56;;;11.45;100.00
59274;BME280;45044;41.572;24.730;2023-06-10T00:05:24;91071.84;;;11.43;100.00
59274;BME280;45044;41.572;24.730;2023-06-10T00:07:50;91065.78;;;11.46;100.00
59274;BME280;45044;41.572;24.730;2023-06-10T00:10:17;91061.28;;;11.50;100.00
59274;BME280;45044;41.572;24.730;2023-06-10T00:12:44;91062.13;;;11.25;100.00
59274;BME280;45044;41.572;24.730;2023-06-10T00:15:11;91058.44;;;11.11;100.00
59274;BME280;45044;41.572;24.730;2023-06-10T00:17:38;91051.34;;;10.97;100.00
59274;BME280;45044;41.572;24.730;2023-06-10T00:20:10;91046.84;;;10.90;100.00
59274;BME280;45044;41.572;24.730;2023-06-10T00:22:40;91044.19;;;10.98;100.00
59274;BME280;45044;41.572;24.730;2023-06-10T00:25:09;91045.34;;;10.97;100.00
59274;BME280;45044;41.572;24.730;2023-06-10T00:27:36;91047.59;;;10.95;100.00
59274;BME280;45044;41.572;24.730;2023-06-10T00:30:04;91044.19;;;10.98;100.00
59274;BME280;45044;41.572;24.730;2023-06-10T00:32:34;91042.69;;;11.00;100.00
59274;BME280;45044;41.572;24.730;2023-06-10T00:35:01;91042.63;;;11.15;100.00
59274;BME280;45044;41.572;24.730;2023-06-10T00:37:28;91042.22;;;11.20;100.00
59274;BME280;45044;41.572;24.730;2023-06-10T00:39:55;91047.91;;;11.15;100.00
59274;BME280;45044;41.572;24.730;2023-06-10T00:42:22;91044.94;;;11.02;100.00
59274;BME280;45044;41.572;24.730;2023-06-10T00:44:51;91048.00;;;10.89;100.00
59274;BME280;45044;41.572;24.730;2023-06-10T00:47:18;91041.63;;;10.83;100.00
59274;BME280;45044;41.572;24.730;2023-06-10T00:49:46;91038.97;;;10.90;100.00
59274;BME280;45044;41.572;24.730;2023-06-10T00:52:14;91034.38;;;11.09;100.00
59274;BME280;45044;41.572;24.730;2023-06-10T00:54:42;91038.13;;;11.16;100.00
59274;BME280;45044;41.572;24.730;2023-06-10T00:57:10;91035.81;;;11.25;100.00
59274;BME280;45044;41.572;24.730;2023-06-10T00:59:41;91039.16;;;11.33;100.00
59274;BME280;45044;41.572;24.730;2023-06-10T01:02:08;91035.03;;;11.35;100.00
59274;BME280;45044;41.572;24.730;2023-06-10T01:04:35;91029.38;;;11.37;100.00
59274;BME280;45044;41.572;24.730;2023-06-10T01:12:52;91036.94;;;11.28;100.00
59274;BME280;45044;41.572;24.730;2023-06-10T01:15:33;91029.06;;;11.20;100.00
59274;BME280;45044;41.572;24.730;2023-06-10T01:18:09;91035.81;;;11.25;100.00
59274;BME280;45044;41.572;24.730;2023-06-10T01:20:37;91035.06;;;11.28;100.00
59274;BME280;45044;41.572;24.730;2023-06-10T01:23:07;91021.53;;;11.30;100.00
59274;BME280;45044;41.572;24.730;2023-06-10T01:25:40;91022.28;;;11.30;100.00
59274;BME280;45044;41.572;24.730;2023-06-10T01:30:48;91028.28;;;11.27;100.00
59274;BME280;45044;41.572;24.730;2023-06-10T01:33:25;91021.53;;;11.26;100.00
59274;BME280;45044;41.572;24.730;2023-06-10T01:35:53;91019.41;;;10.99;100.00
59274;BME280;45044;41.572;24.730;2023-06-10T01:38:21;91016.38;;;11.04;100.00
59274;BME280;45044;41.572;24.730;2023-06-10T01:40:50;91021.25;;;11.06;100.00
59274;BME280;45044;41.572;24.730;2023-06-10T01:43:20;91014.91;;;10.96;100.00
59274;BME280;45044;41.572;24.730;2023-06-10T01:45:47;91017.88;;;11.01;100.00
59274;BME280;45044;41.572;24.730;2023-06-10T01:48:14;91020.91;;;11.00;100.00
59274;BME280;45044;41.572;24.730;2023-06-10T01:50:41;91017.91;;;10.98;100.00
59274;BME280;45044;41.572;24.730;2023-06-10T01:53:07;91017.88;;;11.01;100.00
59274;BME280;45044;41.572;24.730;2023-06-10T01:55:34;91024.28;;;11.00;100.00
59274;BME280;45044;41.572;24.730;2023-06-10T01:58:01;91023.16;;;10.98;100.00
59274;BME280;45044;41.572;24.730;2023-06-10T02:00:28;91029.19;;;10.95;100.00
59274;BME280;45044;41.572;24.730;2023-06-10T02:02:54;91021.69;;;10.89;100.00
59274;BME280;45044;41.572;24.730;2023-06-10T02:05:21;91027.00;;;10.71;100.00
59274;BME280;45044;41.572;24.730;2023-06-10T02:07:49;91025.13;;;10.72;100.00
59274;BME280;45044;41.572;24.730;2023-06-10T02:10:16;91022.13;;;10.70;100.00
59274;BME280;45044;41.572;24.730;2023-06-10T02:12:43;91027.78;;;10.72;100.00
59274;BME280;45044;41.572;24.730;2023-06-10T02:15:10;91027.75;;;10.75;100.00
59274;BME280;45044;41.572;24.730;2023-06-10T02:17:36;91033.75;;;10.76;100.00
59274;BME280;45044;41.572;24.730;2023-06-10T02:20:05;91028.50;;;10.76;100.00
59274;BME280;45044;41.572;24.730;2023-06-10T02:22:34;91027.38;;;10.77;100.00
59274;BME280;45044;41.572;24.730;2023-06-10T02:25:01;91030.38;;;10.83;100.00
59274;BME280;45044;41.572;24.730;2023-06-10T02:27:28;91030.75;;;10.81;100.00
59274;BME280;45044;41.572;24.730;2023-06-10T02:29:55;91024.00;;;10.69;100.00
59274;BME280;45044;41.572;24.730;2023-06-10T02:32:21;91020.66;;;10.69;100.00
59274;BME280;45044;41.572;24.730;2023-06-10T02:34:48;91030.00;;;10.77;100.00
59274;BME280;45044;41.572;24.730;2023-06-10T02:37:16;91034.88;;;10.75;100.00
59274;BME280;45044;41.572;24.730;2023-06-10T02:39:43;91033.75;;;10.80;100.00
59274;BME280;45044;41.572;24.730;2023-06-10T02:42:09;91035.31;;;10.55;100.00
59274;BME280;45044;41.572;24.730;2023-06-10T02:44:37;91038.66;;;10.70;100.00
59274;BME280;45044;41.572;24.730;2023-06-10T02:47:04;91034.47;;;10.84;100.00
59274;BME280;45044;41.572;24.730;2023-06-10T02:49:31;91039.69;;;10.95;100.00
59274;BME280;45044;41.572;24.730;2023-06-10T02:52:06;91039.69;;;11.02;100.00
59274;BME280;45044;41.572;24.730;2023-06-10T02:54:34;91039.69;;;11.02;100.00
59274;BME280;45044;41.572;24.730;2023-06-10T02:57:08;91037.47;;;10.89;100.00
59274;BME280;45044;41.572;24.730;2023-06-10T02:59:36;91042.38;;;10.84;100.00
59274;BME280;45044;41.572;24.730;2023-06-10T03:02:03;91046.47;;;10.96;100.00
59274;BME280;45044;41.572;24.730;2023-06-10T03:04:30;91041.22;;;10.99;100.00
59274;BME280;45044;41.572;24.730;2023-06-10T03:06:57;91039.69;;;11.02;100.00
59274;BME280;45044;41.572;24.730;2023-06-10T03:09:24;91041.94;;;11.00;100.00
59274;BME280;45044;41.572;24.730;2023-06-10T03:11:50;91047.94;;;11.04;100.00
59274;BME280;45044;41.572;24.730;2023-06-10T03:14:17;91053.94;;;11.12;100.00
59274;BME280;45044;41.572;24.730;2023-06-10T03:16:44;91049.41;;;11.12;100.00
59274;BME280;45044;41.572;24.730;2023-06-10T03:19:12;91044.84;;;11.24;100.00
59274;BME280;45044;41.572;24.730;2023-06-10T03:21:38;91050.03;;;11.38;100.00
59274;BME280;45044;41.572;24.730;2023-06-10T03:24:08;91057.13;;;11.45;100.00
59274;BME280;45044;41.572;24.730;2023-06-10T03:26:34;91051.81;;;11.56;100.00
59274;BME280;45044;41.572;24.730;2023-06-10T03:29:01;91047.97;;;11.72;100.00
59274;BME280;45044;41.572;24.730;2023-06-10T03:31:28;91045.41;;;11.65;100.00
59274;BME280;45044;41.572;24.730;2023-06-10T03:33:56;91052.63;;;11.49;100.00
59274;BME280;45044;41.572;24.730;2023-06-10T03:36:22;91049.97;;;11.53;100.00
59274;BME280;45044;41.572;24.730;2023-06-10T03:38:49;91045.88;;;11.48;100.00
59274;BME280;45044;41.572;24.730;2023-06-10T03:41:19;91043.84;;;11.67;100.00
59274;BME280;45044;41.572;24.730;2023-06-10T03:43:47;91043.78;;;11.78;100.00
59274;BME280;45044;41.572;24.730;2023-06-10T03:46:14;91049.38;;;11.88;100.00
59274;BME280;45044;41.572;24.730;2023-06-10T03:48:41;91047.06;;;11.97;100.00
59274;BME280;45044;41.572;24.730;2023-06-10T03:51:09;91056.38;;;12.05;100.00
59274;BME280;45044;41.572;24.730;2023-06-10T03:53:36;91050.34;;;12.16;100.00
59274;BME280;45044;41.572;24.730;2023-06-10T03:56:03;91049.53;;;12.23;100.00
59274;BME280;45044;41.572;24.730;2023-06-10T03:58:29;91044.91;;;12.30;100.00
59274;BME280;45044;41.572;24.730;2023-06-10T04:00:56;91041.09;;;12.39;100.00
59274;BME280;45044;41.572;24.730;2023-06-10T04:03:23;91026.03;;;12.39;100.00
59274;BME280;45044;41.572;24.730;2023-06-10T04:05:50;91033.44;;;12.52;100.00
59274;BME280;45044;41.572;24.730;2023-06-10T04:08:17;91039.53;;;12.45;100.00
59274;BME280;45044;41.572;24.730;2023-06-10T04:10:44;91036.72;;;12.63;100.00
59274;BME280;45044;41.572;24.730;2023-06-10T04:13:11;91036.28;;;12.72;100.00
59274;BME280;45044;41.572;24.730;2023-06-10T04:15:38;91038.41;;;12.85;100.00
59274;BME280;45044;41.572;24.730;2023-06-10T04:18:04;91032.00;;;12.82;100.00
59274;BME280;45044;41.572;24.730;2023-06-10T04:20:31;91039.91;;;12.82;100.00
59274;BME280;45044;41.572;24.730;2023-06-10T04:22:58;91034.44;;;13.00;100.00
59274;BME280;45044;41.572;24.730;2023-06-10T04:25:26;91035.59;;;12.99;100.00
59274;BME280;45044;41.572;24.730;2023-06-10T04:27:54;91027.25;;;13.04;100.00
59274;BME280;45044;41.572;24.730;2023-06-10T04:30:21;91028.38;;;13.35;100.00
59274;BME280;45044;41.572;24.730;2023-06-10T04:32:48;91036.88;;;13.50;100.00
59274;BME280;45044;41.572;24.730;2023-06-10T04:35:15;91033.41;;;13.57;100.00
59274;BME280;45044;41.572;24.730;2023-06-10T04:37:42;91035.34;;;13.52;100.00
59274;BME280;45044;41.572;24.730;2023-06-10T04:40:09;91023.91;;;13.63;100.00
59274;BME280;45044;41.572;24.730;2023-06-10T04:42:37;91029.59;;;13.58;100.00
59274;BME280;45044;41.572;24.730;2023-06-10T04:45:04;91031.94;;;13.80;100.00
59274;BME280;45044;41.572;24.730;2023-06-10T04:47:31;91031.94;;;13.80;100.00
59274;BME280;45044;41.572;24.730;2023-06-10T04:50:01;91026.56;;;13.87;100.00
59274;BME280;45044;41.572;24.730;2023-06-10T04:52:29;91028.41;;;13.90;100.00
59274;BME280;45044;41.572;24.730;2023-06-10T04:54:57;91031.63;;;14.01;100.00
59274;BME280;45044;41.572;24.730;2023-06-10T04:57:25;91028.63;;;13.99;100.00
59274;BME280;45044;41.572;24.730;2023-06-10T04:59:52;91037.38;;;14.20;100.00
59274;BME280;45044;41.572;24.730;2023-06-10T05:02:19;91032.78;;;14.24;100.00
59274;BME280;45044;41.572;24.730;2023-06-10T05:04:46;91034.84;;;14.37;100.00
59274;BME280;45044;41.572;24.730;2023-06-10T05:07:13;91031.50;;;14.57;100.00
59274;BME280;45044;41.572;24.730;2023-06-10T05:09:40;91034.50;;;14.59;100.00
59274;BME280;45044;41.572;24.730;2023-06-10T05:12:07;91025.28;;;14.67;100.00
59274;BME280;45044;41.572;24.730;2023-06-10T05:14:35;91024.38;;;14.74;100.00
59274;BME280;45044;41.572;24.730;2023-06-10T05:17:02;91025.59;;;14.93;100.00
59274;BME280;45044;41.572;24.730;2023-06-10T05:19:29;91033.06;;;15.73;100.00
59274;BME280;45044;41.572;24.730;2023-06-10T05:21:56;91031.28;;;16.53;100.00
59274;BME280;45044;41.572;24.730;2023-06-10T05:24:22;91040.97;;;16.90;100.00
59274;BME280;45044;41.572;24.730;2023-06-10T05:26:49;91029.00;;;17.28;100.00
59274;BME280;45044;41.572;24.730;2023-06-10T05:29:16;91025.84;;;17.85;100.00
59274;BME280;45044;41.572;24.730;2023-06-10T05:31:43;91034.75;;;20.10;100.00
59274;BME280;45044;41.572;24.730;2023-06-10T05:34:10;91036.28;;;21.61;100.00
59274;BME280;45044;41.572;24.730;2023-06-10T05:36:37;91035.00;;;21.90;100.00
59274;BME280;45044;41.572;24.730;2023-06-10T05:39:04;91028.31;;;23.33;100.00
59274;BME280;45044;41.572;24.730;2023-06-10T05:41:31;91026.41;;;25.14;95.35
59274;BME280;45044;41.572;24.730;2023-06-10T05:43:57;91033.03;;;26.36;78.05
59274;BME280;45044;41.572;24.730;2023-06-10T05:46:24;91025.06;;;26.59;70.87
59274;BME280;45044;41.572;24.730;2023-06-10T05:48:52;91022.00;;;26.89;69.86
59274;BME280;45044;41.572;24.730;2023-06-10T05:51:19;91016.53;;;28.19;64.40
59274;BME280;45044;41.572;24.730;2023-06-10T05:53:46;91018.97;;;28.46;59.70
59274;BME280;45044;41.572;24.730;2023-06-10T05:56:14;91017.00;;;28.35;59.94
59274;BME280;45044;41.572;24.730;2023-06-10T05:58:41;91018.09;;;28.86;56.94
59274;BME280;45044;41.572;24.730;2023-06-10T06:01:08;91019.50;;;29.10;55.75
59274;BME280;45044;41.572;24.730;2023-06-10T06:03:35;91021.97;;;27.73;58.80
59274;BME280;45044;41.572;24.730;2023-06-10T06:06:03;91012.13;;;27.70;58.86
59274;BME280;45044;41.572;24.730;2023-06-10T06:08:30;91008.91;;;28.18;57.99
59274;BME280;45044;41.572;24.730;2023-06-10T06:10:57;91004.56;;;28.91;56.49
59274;BME280;45044;41.572;24.730;2023-06-10T06:13:24;91001.91;;;29.70;54.79
59274;BME280;45044;41.572;24.730;2023-06-10T06:15:51;90998.81;;;28.41;57.47
59274;BME280;45044;41.572;24.730;2023-06-10T06:18:17;90991.50;;;27.38;60.93
59274;BME280;45044;41.572;24.730;2023-06-10T06:20:45;90985.41;;;27.84;60.40
59274;BME280;45044;41.572;24.730;2023-06-10T06:23:11;90988.03;;;26.42;65.25
59274;BME280;45044;41.572;24.730;2023-06-10T06:25:38;90986.09;;;27.56;62.16
59274;BME280;45044;41.572;24.730;2023-06-10T06:28:06;90984.13;;;28.96;55.25
59274;BME280;45044;41.572;24.730;2023-06-10T06:30:33;90992.34;;;28.67;54.67
59274;BME280;45044;41.572;24.730;2023-06-10T06:33:01;90988.03;;;27.32;57.22
59274;BME280;45044;41.572;24.730;2023-06-10T06:35:30;90991.63;;;25.63;62.87
59274;BME280;45044;41.572;24.730;2023-06-10T06:37:58;90989.53;;;24.72;75.14
59274;BME280;45044;41.572;24.730;2023-06-10T06:40:25;90985.84;;;25.17;79.76
59274;BME280;45044;41.572;24.730;2023-06-10T06:42:52;90980.47;;;25.70;73.48
59274;BME280;45044;41.572;24.730;2023-06-10T06:45:19;90987.81;;;26.14;69.85
59274;BME280;45044;41.572;24.730;2023-06-10T06:47:46;90976.34;;;26.69;61.17
59274;BME280;45044;41.572;24.730;2023-06-10T06:50:13;90970.41;;;26.03;68.23
59274;BME280;45044;41.572;24.730;2023-06-10T06:52:40;90977.56;;;26.62;60.74
59274;BME280;45044;41.572;24.730;2023-06-10T06:55:07;90973.69;;;24.74;72.61
59274;BME280;45044;41.572;24.730;2023-06-10T06:57:34;90974.13;;;26.17;67.16
59274;BME280;45044;41.572;24.730;2023-06-10T07:00:01;90973.50;;;25.90;61.21
59274;BME280;45044;41.572;24.730;2023-06-10T07:02:27;90972.84;;;27.35;62.42
59274;BME280;45044;41.572;24.730;2023-06-10T07:04:54;90959.34;;;28.09;54.02
59274;BME280;45044;41.572;24.730;2023-06-10T07:07:22;90958.16;;;29.66;53.10
59274;BME280;45044;41.572;24.730;2023-06-10T07:09:49;90961.22;;;28.97;53.85
59274;BME280;45044;41.572;24.730;2023-06-10T07:12:16;90958.13;;;27.99;56.40
59274;BME280;45044;41.572;24.730;2023-06-10T07:14:44;90953.69;;;26.37;57.96
59274;BME280;45044;41.572;24.730;2023-06-10T07:17:11;90957.34;;;25.26;69.42
59274;BME280;45044;41.572;24.730;2023-06-10T07:19:38;90963.53;;;26.40;63.81
59274;BME280;45044;41.572;24.730;2023-06-10T07:22:05;90960.28;;;25.92;62.25
59274;BME280;45044;41.572;24.730;2023-06-10T07:24:32;90955.84;;;26.27;66.79
59274;BME280;45044;41.572;24.730;2023-06-10T07:26:58;90949.00;;;25.23;64.26
59274;BME280;45044;41.572;24.730;2023-06-10T07:29:25;90959.00;;;24.70;72.75
59274;BME280;45044;41.572;24.730;2023-06-10T07:31:52;90945.44;;;25.06;71.40
59274;BME280;45044;41.572;24.730;2023-06-10T07:34:20;90950.88;;;24.64;85.06
59274;BME280;45044;41.572;24.730;2023-06-10T07:36:47;90946.50;;;23.89;77.06
59274;BME280;45044;41.572;24.730;2023-06-10T07:39:14;90956.47;;;24.03;80.90
59274;BME280;45044;41.572;24.730;2023-06-10T07:41:41;90959.25;;;23.58;85.02
59274;BME280;45044;41.572;24.730;2023-06-10T07:44:08;90955.63;;;22.85;81.20
59274;BME280;45044;41.572;24.730;2023-06-10T07:46:35;90959.69;;;22.96;81.98
59274;BME280;45044;41.572;24.730;2023-06-10T07:49:02;90950.00;;;22.99;81.80
59274;BME280;45044;41.572;24.730;2023-06-10T07:51:28;90958.78;;;22.99;96.21
59274;BME280;45044;41.572;24.730;2023-06-10T07:53:55;90959.78;;;22.71;100.00
59274;BME280;45044;41.572;24.730;2023-06-10T07:56:23;90955.09;;;22.96;87.67
59274;BME280;45044;41.572;24.730;2023-06-10T07:58:50;90965.66;;;23.15;90.47
59274;BME280;45044;41.572;24.730;2023-06-10T08:01:17;90958.94;;;22.80;98.44
59274;BME280;45044;41.572;24.730;2023-06-10T08:03:43;90969.41;;;22.29;100.00
59274;BME280;45044;41.572;24.730;2023-06-10T08:06:10;90961.59;;;22.41;100.00
59274;BME280;45044;41.572;24.730;2023-06-10T08:08:38;90961.16;;;22.42;100.00
59274;BME280;45044;41.572;24.730;2023-06-10T08:11:13;90967.59;;;22.35;100.00
59274;BME280;45044;41.572;24.730;2023-06-10T08:13:40;90964.69;;;22.24;100.00
59274;BME280;45044;41.572;24.730;2023-06-10T08:16:07;90960.72;;;22.59;98.57
59274;BME280;45044;41.572;24.730;2023-06-10T08:18:34;90967.06;;;22.46;100.00
59274;BME280;45044;41.572;24.730;2023-06-10T08:21:01;90970.78;;;22.24;100.00
59274;BME280;45044;41.572;24.730;2023-06-10T08:23:27;90960.47;;;22.32;100.00
59274;BME280;45044;41.572;24.730;2023-06-10T08:25:54;90961.72;;;22.22;100.00
59274;BME280;45044;41.572;24.730;2023-06-10T08:28:21;90966.75;;;21.61;100.00
59274;BME280;45044;41.572;24.730;2023-06-10T08:30:48;90957.84;;;21.64;100.00
59274;BME280;45044;41.572;24.730;2023-06-10T08:33:15;90959.47;;;21.62;100.00
59274;BME280;45044;41.572;24.730;2023-06-10T08:35:42;90969.44;;;21.52;100.00
59274;BME280;45044;41.572;24.730;2023-06-10T08:38:08;90964.81;;;21.62;100.00
59274;BME280;45044;41.572;24.730;2023-06-10T08:40:36;90964.47;;;21.35;100.00
59274;BME280;45044;41.572;24.730;2023-06-10T08:43:08;90962.75;;;21.04;100.00
59274;BME280;45044;41.572;24.730;2023-06-10T08:45:36;90961.44;;;20.62;100.00
59274;BME280;45044;41.572;24.730;2023-06-10T08:48:04;90965.41;;;20.76;100.00
59274;BME280;45044;41.572;24.730;2023-06-10T08:50:37;90965.72;;;21.06;100.00
59274;BME280;45044;41.572;24.730;2023-06-10T08:53:07;90972.25;;;21.05;100.00
59274;BME280;45044;41.572;24.730;2023-06-10T08:55:38;90965.56;;;21.19;100.00
59274;BME280;45044;41.572;24.730;2023-06-10T08:58:10;90957.78;;;21.30;100.00
59274;BME280;45044;41.572;24.730;2023-06-10T09:00:37;90959.13;;;21.35;100.00
59274;BME280;45044;41.572;24.730;2023-06-10T09:03:04;90963.69;;;21.44;100.00
59274;BME280;45044;41.572;24.730;2023-06-10T09:05:35;90951.41;;;21.37;100.00
59274;BME280;45044;41.572;24.730;2023-06-10T09:08:06;90962.88;;;21.19;100.00
59274;BME280;45044;41.572;24.730;2023-06-10T09:10:36;90958.56;;;21.22;100.00
59274;BME280;45044;41.572;24.730;2023-06-10T09:13:03;90969.13;;;21.06;100.00
59274;BME280;45044;41.572;24.730;2023-06-10T09:15:30;90967.47;;;20.90;100.00
59274;BME280;45044;41.572;24.730;2023-06-10T09:17:57;90966.78;;;20.71;100.00
59274;BME280;45044;41.572;24.730;2023-06-10T09:20:24;90967.50;;;20.25;100.00
59274;BME280;45044;41.572;24.730;2023-06-10T09:22:51;90955.63;;;20.26;100.00
59274;BME280;45044;41.572;24.730;2023-06-10T09:25:18;90956.19;;;20.11;100.00
59274;BME280;45044;41.572;24.730;2023-06-10T09:30:34;90939.38;;;19.09;100.00
59274;BME280;45044;41.572;24.730;2023-06-10T09:33:03;90934.97;;;19.47;100.00
59274;BME280;45044;41.572;24.730;2023-06-10T09:35:35;90934.97;;;19.47;100.00
59274;BME280;45044;41.572;24.730;2023-06-10T09:38:02;90939.19;;;19.26;100.00
59274;BME280;45044;41.572;24.730;2023-06-10T09:40:29;90943.53;;;19.93;100.00
59274;BME280;45044;41.572;24.730;2023-06-10T09:42:59;90947.63;;;20.35;100.00
59274;BME280;45044;41.572;24.730;2023-06-10T09:45:30;90943.75;;;20.83;100.00
59274;BME280;45044;41.572;24.730;2023-06-10T09:48:00;90941.50;;;21.62;100.00
59274;BME280;45044;41.572;24.730;2023-06-10T09:50:27;90941.06;;;21.54;100.00
59274;BME280;45044;41.572;24.730;2023-06-10T09:52:54;90937.94;;;21.22;100.00
59274;BME280;45044;41.572;24.730;2023-06-10T09:55:21;90944.41;;;21.74;100.00
59274;BME280;45044;41.572;24.730;2023-06-10T09:57:53;90942.63;;;21.80;100.00
59274;BME280;45044;41.572;24.730;2023-06-10T10:00:22;90949.38;;;21.23;100.00
59274;BME280;45044;41.572;24.730;2023-06-10T10:02:51;90944.34;;;21.15;100.00
59274;BME280;45044;41.572;24.730;2023-06-10T10:05:21;90938.75;;;20.66;100.00
59274;BME280;45044;41.572;24.730;2023-06-10T10:07:49;90942.16;;;20.95;100.00
59274;BME280;45044;41.572;24.730;2023-06-10T10:10:17;90943.19;;;20.79;100.00
59274;BME280;45044;41.572;24.730;2023-06-10T10:12:51;90954.75;;;20.76;100.00
59274;BME280;45044;41.572;24.730;2023-06-10T10:15:19;90955.19;;;20.37;100.00
59274;BME280;45044;41.572;24.730;2023-06-10T10:20:33;90972.56;;;20.60;100.00
59274;BME280;45044;41.572;24.730;2023-06-10T10:23:03;90971.06;;;20.40;100.00
59274;BME280;45044;41.572;24.730;2023-06-10T10:25:34;90973.41;;;20.29;100.00
59274;BME280;45044;41.572;24.730;2023-06-10T10:28:10;90985.88;;;19.81;100.00
59274;BME280;45044;41.572;24.730;2023-06-10T10:33:13;90978.59;;;18.64;100.00
59274;BME280;45044;41.572;24.730;2023-06-10T10:35:43;90989.47;;;18.57;100.00
59274;BME280;45044;41.572;24.730;2023-06-10T10:38:10;90988.16;;;18.13;100.00
59274;BME280;45044;41.572;24.730;2023-06-10T10:40:40;90985.41;;;18.03;100.00
59274;BME280;45044;41.572;24.730;2023-06-10T10:43:08;90986.91;;;18.04;100.00
59274;BME280;45044;41.572;24.730;2023-06-10T10:45:35;90986.94;;;17.52;100.00
59274;BME280;45044;41.572;24.730;2023-06-10T10:48:08;90990.31;;;17.27;100.00
59274;BME280;45044;41.572;24.730;2023-06-10T10:50:38;90993.47;;;17.08;100.00
59274;BME280;45044;41.572;24.730;2023-06-10T10:53:05;90995.78;;;17.06;100.00
59274;BME280;45044;41.572;24.730;2023-06-10T10:55:33;91009.97;;;16.99;100.00
59274;BME280;45044;41.572;24.730;2023-06-10T11:00:41;91015.03;;;16.81;100.00
59274;BME280;45044;41.572;24.730;2023-06-10T11:03:16;91021.31;;;16.87;100.00
59274;BME280;45044;41.572;24.730;2023-06-10T11:05:46;91019.59;;;16.80;100.00
59274;BME280;45044;41.572;24.730;2023-06-10T11:10:55;91019.19;;;16.52;100.00
59274;BME280;45044;41.572;24.730;2023-06-10T11:13:25;91016.66;;;16.61;100.00
59274;BME280;45044;41.572;24.730;2023-06-10T11:15:57;91026.28;;;16.72;100.00
59274;BME280;45044;41.572;24.730;2023-06-10T11:18:40;91019.09;;;16.56;100.00
59274;BME280;45044;41.572;24.730;2023-06-10T11:21:08;91020.63;;;16.70;100.00
59274;BME280;45044;41.572;24.730;2023-06-10T11:23:38;91023.00;;;16.81;100.00
59274;BME280;45044;41.572;24.730;2023-06-10T11:26:18;91013.13;;;16.81;100.00
59274;BME280;45044;41.572;24.730;2023-06-10T11:31:23;91010.59;;;16.91;100.00
59274;BME280;45044;41.572;24.730;2023-06-10T11:36:24;91000.44;;;17.02;100.00
59274;BME280;45044;41.572;24.730;2023-06-10T11:38:56;91000.47;;;16.72;100.00
59274;BME280;45044;41.572;24.730;2023-06-10T11:41:27;90996.00;;;16.69;100.00
59274;BME280;45044;41.572;24.730;2023-06-10T11:43:56;90995.53;;;16.87;100.00
59274;BME280;45044;41.572;24.730;2023-06-10T11:46:23;90991.81;;;16.98;100.00
59274;BME280;45044;41.572;24.730;2023-06-10T11:51:21;90982.94;;;17.05;100.00
59274;BME280;45044;41.572;24.730;2023-06-10T11:53:49;90975.81;;;17.02;100.00
59274;BME280;45044;41.572;24.730;2023-06-10T11:56:34;90976.03;;;17.07;100.00
59274;BME280;45044;41.572;24.730;2023-06-10T11:59:05;90975.78;;;17.31;100.00
59274;BME280;45044;41.572;24.730;2023-06-10T12:01:41;90967.31;;;17.07;100.00
59274;BME280;45044;41.572;24.730;2023-06-10T12:04:12;90968.75;;;17.51;100.00
59274;BME280;45044;41.572;24.730;2023-06-10T12:06:41;90971.41;;;17.77;100.00
59274;BME280;45044;41.572;24.730;2023-06-10T12:20:05;90976.19;;;17.69;100.00
59274;BME280;45044;41.572;24.730;2023-06-10T12:22:41;90976.94;;;17.95;100.00
59274;BME280;45044;41.572;24.730;2023-06-10T12:25:09;90978.31;;;17.87;100.00
59274;BME280;45044;41.572;24.730;2023-06-10T12:27:38;90971.97;;;17.71;100.00
59274;BME280;45044;41.572;24.730;2023-06-10T12:30:06;90970.34;;;17.87;100.00
59274;BME280;45044;41.572;24.730;2023-06-10T12:32:45;90973.97;;;17.80;100.00
59274;BME280;45044;41.572;24.730;2023-06-10T12:35:16;90968.13;;;17.72;100.00
59274;BME280;45044;41.572;24.730;2023-06-10T12:38:03;90967.91;;;17.80;100.00
59274;BME280;45044;41.572;24.730;2023-06-10T12:40:34;90969.19;;;17.88;100.00
59274;BME280;45044;41.572;24.730;2023-06-10T12:43:02;90970.31;;;18.00;100.00
59274;BME280;45044;41.572;24.730;2023-06-10T12:45:34;90970.84;;;18.08;100.00
59274;BME280;45044;41.572;24.730;2023-06-10T12:48:10;90969.03;;;18.18;100.00
59274;BME280;45044;41.572;24.730;2023-06-10T12:50:41;90968.69;;;18.29;100.00
59274;BME280;45044;41.572;24.730;2023-06-10T12:53:09;90959.66;;;18.26;100.00
59274;BME280;45044;41.572;24.730;2023-06-10T12:55:36;90957.69;;;18.40;100.00
59274;BME280;45044;41.572;24.730;2023-06-10T12:58:03;90964.41;;;18.67;100.00
59274;BME280;45044;41.572;24.730;2023-06-10T13:00:30;90968.47;;;18.81;100.00
59274;BME280;45044;41.572;24.730;2023-06-10T13:03:00;90959.47;;;18.78;100.00
59274;BME280;45044;41.572;24.730;2023-06-10T13:05:29;90971.47;;;18.61;100.00
59274;BME280;45044;41.572;24.730;2023-06-10T13:07:56;90958.81;;;18.74;100.00
59274;BME280;45044;41.572;24.730;2023-06-10T13:10:23;90964.44;;;19.12;100.00
59274;BME280;45044;41.572;24.730;2023-06-10T13:12:52;90962.28;;;19.29;100.00
59274;BME280;45044;41.572;24.730;2023-06-10T13:15:21;90957.63;;;19.43;100.00
59274;BME280;45044;41.572;24.730;2023-06-10T13:17:48;90964.19;;;19.60;100.00
59274;BME280;45044;41.572;24.730;2023-06-10T13:20:19;90957.19;;;19.44;100.00
59274;BME280;45044;41.572;24.730;2023-06-10T13:22:47;90968.34;;;19.30;100.00
59274;BME280;45044;41.572;24.730;2023-06-10T13:25:14;90960.56;;;19.13;100.00
59274;BME280;45044;41.572;24.730;2023-06-10T13:27:42;90959.78;;;18.81;100.00